METAR Data
IDs: Format: Raw Decoded Include TAF

Data at: 0045 UTC 01 Mar 2021

KBWI 282354Z 07006KT 1SM R10/P6000FT -RA BR OVC003 06/05 A2998 RMK AO2 SFC VIS 2 SLP151 P0000 60042 T00610050 10067 20061 58018
KBWI 282311Z 08006KT 1SM R10/P6000FT -RA BR OVC004 06/05 A2999 RMK AO2 SFC VIS 2 PRESFR P0000 T00610050
KBWI 282254Z 07005KT 2 1/2SM -RA BR OVC004 06/05 A3001 RMK AO2 RAE22B47 SLP162 P0000 T00610050
KBWI 282246Z 08007KT 2 1/2SM BR OVC004 06/05 A3001 RMK AO2 RAE22 P0000 T00610050
KBWI 282154Z 07008KT 4SM -RA BR OVC004 06/05 A3003 RMK AO2 SLP169 P0003 T00610050
KBWI 282149Z 07008KT 4SM -RA BR OVC004 06/05 A3003 RMK AO2 P0003
KBWI 282054Z 08008KT 4SM -RA BR OVC005 06/05 A3006 RMK AO2 SLP178 P0007 60039 T00610050 56027
KBWI 282035Z 07009KT 4SM -RA BR OVC005 06/05 A3007 RMK AO2 P0006 T00610050
KBWI 281954Z 09008KT 2SM -RA BR BKN005 OVC010 06/05 A3008 RMK AO2 SLP186 P0021 T00610050
KBWI 281854Z 09014G22KT 2SM -RA BR OVC005 06/05 A3008 RMK AO2 PRESFR SLP186 P0011 T00610050
KBWI 281839Z 08012KT 2SM -RA BR OVC005 07/05 A3011 RMK AO2 P0007 T00670050
KBWI 281818Z 08011KT 3SM -RA BR OVC005 07/05 A3012 RMK AO2 P0004 T00670050
KBWI 281754Z 08013KT 2SM -RA BR BKN006 OVC011 07/05 A3014 RMK AO2 SLP205 P0013 60038 T00670050 10078 20067 58029
KBWI 281654Z 09007KT 2 1/2SM -RA BR BKN006 BKN012 OVC034 07/06 A3023 RMK AO2 SLP237 P0017 T00720056
KBWI 281614Z 05008KT 2 1/2SM -RA BR BKN006 BKN010 OVC033 07/06 A3021 RMK AO2 P0004 T00720056
KBWI 281554Z 08007KT 3SM -RA BR BKN008 OVC031 07/06 A3021 RMK AO2 SLP229 P0001 T00720056
KBWI 281552Z 07008KT 3SM -RA BR BKN008 OVC031 07/06 A3021 RMK AO2 P0000
KBWI 281545Z 07005KT 2 1/2SM -RA BR SCT008 OVC031 07/06 A3021 RMK AO2 SFC VIS 4 P0000 T00720061
KBWI 281454Z 07006KT 2 1/2SM -RA BR OVC035 07/06 A3022 RMK AO2 SFC VIS 3 SLP234 P0003 60007 T00720061 58018
KBWI 281406Z 09006KT 2 1/2SM -RA BR OVC036 07/06 A3023 RMK AO2 SFC VIS 3 P0001 T00720061
KBWI 281354Z 10006KT 3SM -RA BR OVC036 08/06 A3024 RMK AO2 SLP239 P0002 T00780061
KBWI 281254Z 00000KT 5SM -RA BR BKN036 OVC095 07/06 A3027 RMK AO2 SLP250 P0002 T00720061
KBWI 281154Z 00000KT 4SM -RA BR OVC080 07/06 A3027 RMK AO2 SLP252 P0003 60003 70008 T00670056 10072 20050 53004
KBWI 281054Z 00000KT 8SM -RA BKN090 OVC130 07/05 A3026 RMK AO2 RAE23B53DZB46E53 SLP249 P0000 T00670050
KBWI 280954Z 00000KT 6SM -RA BR FEW070 OVC090 06/05 A3025 RMK AO2 RAB33 SLP245 P0000 T00610050
KBWI 280854Z 00000KT 10SM BKN055 OVC110 07/04 A3026 RMK AO2 SLP248 VIRGA ALQDS T00670044 50004
KBWI 280754Z 00000KT 10SM BKN055 OVC140 07/06 A3028 RMK AO2 SLP253 T00670056
KBWI 280654Z 00000KT 10SM BKN140 OVC160 06/04 A3027 RMK AO2 SLP251 T00610044
KBWI 280554Z 10003KT 10SM BKN160 OVC190 06/04 A3025 RMK AO2 SLP244 T00610044 10089 20044 50004
KBWI 280454Z 00000KT 10SM SCT170 OVC200 06/04 A3027 RMK AO2 SLP250 T00560039 401220022
KBWI 280354Z 00000KT 10SM SCT130 OVC220 06/04 A3027 RMK AO2 SLP250 T00610044
KBWI 280254Z 00000KT 10SM FEW250 06/04 A3024 RMK AO2 SLP240 T00560039 53018
KBWI 280154Z 00000KT 10SM FEW250 06/04 A3021 RMK AO2 SLP229 T00610044
KBWI 280054Z 00000KT 10SM SCT250 08/05 A3020 RMK AO2 SLP227 T00780050
KBWI 272354Z 00000KT 10SM FEW150 BKN250 09/05 A3019 RMK AO2 SLP222 T00890050 10122 20083 53029
KBWI 272254Z 22004KT 10SM FEW090 SCT150 BKN250 11/06 A3014 RMK AO2 SLP208 T01110056
KBWI 272154Z 24005KT 10SM SCT080 SCT150 BKN250 12/06 A3012 RMK AO2 SLP199 T01170061
KBWI 272054Z 27004KT 10SM FEW016 SCT080 BKN150 BKN230 11/06 A3010 RMK AO2 SLP193 T01060056 53009 $
KBWI 271954Z 24007KT 10SM FEW016 FEW060 SCT230 10/05 A3008 RMK AO2 SLP185 T01000050 $
KBWI 271930Z 25010KT 10SM SCT016 BKN200 09/04 A3008 RMK AO2 T00940044 $
KBWI 271854Z 27010KT 10SM OVC016 09/04 A3007 RMK AO2 SLP184 T00890044 $
KBWI 271831Z 26011KT 10SM OVC015 08/04 A3007 RMK AO2 T00830044 $
KBWI 271754Z 25013G18KT 10SM BKN013 08/04 A3007 RMK AO2 SLP183 60005 T00830044 10089 20033 55001 $
KBWI 271722Z 25009KT 10SM BKN013 07/04 A3007 RMK AO2 T00720039 $
KBWI 271654Z 25006KT 10SM BKN008 OVC013 07/04 A3007 RMK AO2 CIG 007V010 PRESFR SLP181 T00670039 $
KBWI 271554Z 26006KT 10SM OVC006 06/04 A3007 RMK AO2 RAE42 SLP184 P0001 T00560039 $
KBWI 271454Z 00000KT 6SM -RA BR OVC005 04/03 A3007 RMK AO2 SLP184 P0001 60004 T00440028 56016 $
KBWI 271354Z 00000KT 4SM R10/5500VP6000FT -RA BR OVC005 04/03 A3009 RMK AO2 DZE28RAB28 SLP191 P0003 T00390033 $
KBWI 271352Z 00000KT 3SM R10/5500VP6000FT -RA BR OVC005 04/03 A3010 RMK AO2 DZE28RAB28 P0003 $
KBWI 271328Z 00000KT 3SM -RA BR BKN004 OVC015 04/03 A3012 RMK AO2 DZE28RAB28 P0001 T00390028 $
KBWI 271254Z 11003KT 2SM -DZ BR OVC005 04/03 A3012 RMK AO2 PRESFR SLP199 P0000 T00390028 $
KBWI 271246Z 00000KT 2SM -DZ BR OVC005 04/03 A3013 RMK AO2 CIG 003V008 P0000 T00390028 $